sensor_id;sensor_type;location;lat;lon;timestamp;temperature;humidity
17489;DHT22;8861;52.644;4.734;2022-10-17T00:00:43;13.80;99.90
17489;DHT22;8861;52.644;4.734;2022-10-17T00:03:10;13.80;99.90
17489;DHT22;8861;52.644;4.734;2022-10-17T00:05:42;13.80;99.90
17489;DHT22;8861;52.644;4.734;2022-10-17T00:08:10;13.80;99.90
17489;DHT22;8861;52.644;4.734;2022-10-17T00:10:39;13.80;99.90
17489;DHT22;8861;52.644;4.734;2022-10-17T00:13:07;13.80;99.90
17489;DHT22;8861;52.644;4.734;2022-10-17T00:15:34;13.80;99.90
17489;DHT22;8861;52.644;4.734;2022-10-17T00:18:02;13.80;99.90
17489;DHT22;8861;52.644;4.734;2022-10-17T00:20:29;13.80;99.90
17489;DHT22;8861;52.644;4.734;2022-10-17T00:22:57;13.90;99.90
17489;DHT22;8861;52.644;4.734;2022-10-17T00:25:25;13.90;99.90
17489;DHT22;8861;52.644;4.734;2022-10-17T00:27:53;13.90;99.90
17489;DHT22;8861;52.644;4.734;2022-10-17T00:30:20;13.90;99.90
17489;DHT22;8861;52.644;4.734;2022-10-17T00:32:46;13.90;99.90
17489;DHT22;8861;52.644;4.734;2022-10-17T00:35:13;13.90;99.90
17489;DHT22;8861;52.644;4.734;2022-10-17T00:37:40;14.00;99.90
17489;DHT22;8861;52.644;4.734;2022-10-17T00:40:09;14.00;99.90
17489;DHT22;8861;52.644;4.734;2022-10-17T00:42:36;14.00;99.90
17489;DHT22;8861;52.644;4.734;2022-10-17T00:45:14;14.00;99.90
17489;DHT22;8861;52.644;4.734;2022-10-17T00:47:44;13.90;99.90
17489;DHT22;8861;52.644;4.734;2022-10-17T00:50:12;13.80;99.90
17489;DHT22;8861;52.644;4.734;2022-10-17T00:52:40;13.80;99.90
17489;DHT22;8861;52.644;4.734;2022-10-17T00:55:11;13.70;99.90
17489;DHT22;8861;52.644;4.734;2022-10-17T00:57:39;13.70;99.90
17489;DHT22;8861;52.644;4.734;2022-10-17T01:00:10;13.70;99.90
17489;DHT22;8861;52.644;4.734;2022-10-17T01:02:37;13.60;99.90
17489;DHT22;8861;52.644;4.734;2022-10-17T01:05:05;13.60;99.90
17489;DHT22;8861;52.644;4.734;2022-10-17T01:07:33;13.60;99.90
17489;DHT22;8861;52.644;4.734;2022-10-17T01:10:04;13.60;99.90
17489;DHT22;8861;52.644;4.734;2022-10-17T01:12:38;13.60;99.90
17489;DHT22;8861;52.644;4.734;2022-10-17T01:15:13;13.70;99.90
17489;DHT22;8861;52.644;4.734;2022-10-17T01:17:51;13.70;99.90
17489;DHT22;8861;52.644;4.734;2022-10-17T01:23:51;13.60;99.90
17489;DHT22;8861;52.644;4.734;2022-10-17T01:26:26;13.60;99.90
17489;DHT22;8861;52.644;4.734;2022-10-17T01:29:13;13.50;99.90
17489;DHT22;8861;52.644;4.734;2022-10-17T01:31:53;13.50;99.90
17489;DHT22;8861;52.644;4.734;2022-10-17T01:34:26;13.50;99.90
17489;DHT22;8861;52.644;4.734;2022-10-17T01:37:01;13.40;99.90
17489;DHT22;8861;52.644;4.734;2022-10-17T01:39:38;13.40;99.90
17489;DHT22;8861;52.644;4.734;2022-10-17T01:42:12;13.40;99.90
17489;DHT22;8861;52.644;4.734;2022-10-17T01:44:45;13.40;99.90
17489;DHT22;8861;52.644;4.734;2022-10-17T01:47:18;13.40;99.90
17489;DHT22;8861;52.644;4.734;2022-10-17T01:49:48;13.30;99.90
17489;DHT22;8861;52.644;4.734;2022-10-17T01:52:19;13.40;99.90
17489;DHT22;8861;52.644;4.734;2022-10-17T01:54:50;13.30;99.90
17489;DHT22;8861;52.644;4.734;2022-10-17T01:57:20;13.30;99.90
17489;DHT22;8861;52.644;4.734;2022-10-17T01:59:51;13.30;99.90
17489;DHT22;8861;52.644;4.734;2022-10-17T02:02:20;13.30;99.90
17489;DHT22;8861;52.644;4.734;2022-10-17T02:04:49;13.30;99.90
17489;DHT22;8861;52.644;4.734;2022-10-17T02:07:17;13.30;99.90
17489;DHT22;8861;52.644;4.734;2022-10-17T02:09:44;13.30;99.90
17489;DHT22;8861;52.644;4.734;2022-10-17T02:12:25;13.30;99.90
17489;DHT22;8861;52.644;4.734;2022-10-17T02:15:05;13.30;99.90
17489;DHT22;8861;52.644;4.734;2022-10-17T02:17:44;13.30;99.90
17489;DHT22;8861;52.644;4.734;2022-10-17T02:20:20;13.30;99.90
17489;DHT22;8861;52.644;4.734;2022-10-17T02:22:53;13.30;99.90
17489;DHT22;8861;52.644;4.734;2022-10-17T02:25:30;13.30;99.90
17489;DHT22;8861;52.644;4.734;2022-10-17T02:28:08;13.30;99.90
17489;DHT22;8861;52.644;4.734;2022-10-17T02:30:39;13.30;99.90
17489;DHT22;8861;52.644;4.734;2022-10-17T02:33:11;13.40;99.90
17489;DHT22;8861;52.644;4.734;2022-10-17T02:35:40;13.40;99.90
17489;DHT22;8861;52.644;4.734;2022-10-17T02:38:09;13.40;99.90
17489;DHT22;8861;52.644;4.734;2022-10-17T02:40:38;13.40;99.90
17489;DHT22;8861;52.644;4.734;2022-10-17T02:43:07;13.40;99.90
17489;DHT22;8861;52.644;4.734;2022-10-17T02:45:35;13.50;99.90
17489;DHT22;8861;52.644;4.734;2022-10-17T02:48:05;13.50;99.90
17489;DHT22;8861;52.644;4.734;2022-10-17T02:50:44;13.50;99.90
17489;DHT22;8861;52.644;4.734;2022-10-17T02:53:16;13.50;99.90
17489;DHT22;8861;52.644;4.734;2022-10-17T02:55:49;13.50;99.90
17489;DHT22;8861;52.644;4.734;2022-10-17T02:58:20;13.50;99.90
17489;DHT22;8861;52.644;4.734;2022-10-17T03:00:50;13.50;99.90
17489;DHT22;8861;52.644;4.734;2022-10-17T03:03:19;13.60;99.90
17489;DHT22;8861;52.644;4.734;2022-10-17T03:05:48;13.50;99.90
17489;DHT22;8861;52.644;4.734;2022-10-17T03:08:15;13.60;99.90
17489;DHT22;8861;52.644;4.734;2022-10-17T03:10:42;13.60;99.90
17489;DHT22;8861;52.644;4.734;2022-10-17T03:13:09;13.60;99.90
17489;DHT22;8861;52.644;4.734;2022-10-17T03:15:36;13.60;99.90
17489;DHT22;8861;52.644;4.734;2022-10-17T03:18:03;13.60;99.90
17489;DHT22;8861;52.644;4.734;2022-10-17T03:20:33;13.60;99.90
17489;DHT22;8861;52.644;4.734;2022-10-17T03:23:01;13.60;99.90
17489;DHT22;8861;52.644;4.734;2022-10-17T03:25:28;13.70;99.90
17489;DHT22;8861;52.644;4.734;2022-10-17T03:27:57;13.70;99.90
17489;DHT22;8861;52.644;4.734;2022-10-17T03:30:24;13.70;99.90
17489;DHT22;8861;52.644;4.734;2022-10-17T03:32:51;13.80;99.90
17489;DHT22;8861;52.644;4.734;2022-10-17T03:35:18;13.80;99.90
17489;DHT22;8861;52.644;4.734;2022-10-17T03:37:45;13.90;99.90
17489;DHT22;8861;52.644;4.734;2022-10-17T03:40:13;13.90;99.90
17489;DHT22;8861;52.644;4.734;2022-10-17T03:42:40;14.00;99.90
17489;DHT22;8861;52.644;4.734;2022-10-17T03:45:08;14.00;99.90
17489;DHT22;8861;52.644;4.734;2022-10-17T03:47:35;14.00;99.90
17489;DHT22;8861;52.644;4.734;2022-10-17T03:50:01;14.10;99.90
17489;DHT22;8861;52.644;4.734;2022-10-17T03:52:28;14.10;99.90
17489;DHT22;8861;52.644;4.734;2022-10-17T03:54:55;14.20;99.90
17489;DHT22;8861;52.644;4.734;2022-10-17T03:57:23;14.20;99.90
17489;DHT22;8861;52.644;4.734;2022-10-17T03:59:50;14.30;99.90
17489;DHT22;8861;52.644;4.734;2022-10-17T04:02:17;14.30;99.90
17489;DHT22;8861;52.644;4.734;2022-10-17T04:04:44;14.30;99.90
17489;DHT22;8861;52.644;4.734;2022-10-17T04:07:11;14.40;99.90
17489;DHT22;8861;52.644;4.734;2022-10-17T04:09:38;14.40;99.90
17489;DHT22;8861;52.644;4.734;2022-10-17T04:12:05;14.50;99.90
17489;DHT22;8861;52.644;4.734;2022-10-17T04:14:33;14.50;99.90
17489;DHT22;8861;52.644;4.734;2022-10-17T04:17:00;14.60;99.90
17489;DHT22;8861;52.644;4.734;2022-10-17T04:19:27;14.60;99.90
17489;DHT22;8861;52.644;4.734;2022-10-17T04:21:54;14.70;99.90
17489;DHT22;8861;52.644;4.734;2022-10-17T04:24:20;14.70;99.90
17489;DHT22;8861;52.644;4.734;2022-10-17T04:26:48;14.80;99.90
17489;DHT22;8861;52.644;4.734;2022-10-17T04:29:16;14.80;99.90
17489;DHT22;8861;52.644;4.734;2022-10-17T04:31:44;14.80;99.90
17489;DHT22;8861;52.644;4.734;2022-10-17T04:34:11;14.80;99.90
17489;DHT22;8861;52.644;4.734;2022-10-17T04:36:39;14.80;99.90
17489;DHT22;8861;52.644;4.734;2022-10-17T04:39:06;14.80;99.90
17489;DHT22;8861;52.644;4.734;2022-10-17T04:41:33;14.80;99.90
17489;DHT22;8861;52.644;4.734;2022-10-17T04:44:00;14.90;99.90
17489;DHT22;8861;52.644;4.734;2022-10-17T04:46:27;14.80;99.90
17489;DHT22;8861;52.644;4.734;2022-10-17T04:48:55;14.80;99.90
17489;DHT22;8861;52.644;4.734;2022-10-17T04:51:22;14.70;99.90
17489;DHT22;8861;52.644;4.734;2022-10-17T04:53:49;14.70;99.90
17489;DHT22;8861;52.644;4.734;2022-10-17T04:56:17;14.70;99.90
17489;DHT22;8861;52.644;4.734;2022-10-17T04:58:44;14.80;99.90
17489;DHT22;8861;52.644;4.734;2022-10-17T05:01:13;14.80;99.90
17489;DHT22;8861;52.644;4.734;2022-10-17T05:03:41;14.90;99.90
17489;DHT22;8861;52.644;4.734;2022-10-17T05:06:13;14.90;99.90
17489;DHT22;8861;52.644;4.734;2022-10-17T05:08:40;14.90;99.90
17489;DHT22;8861;52.644;4.734;2022-10-17T05:11:15;15.00;99.90
17489;DHT22;8861;52.644;4.734;2022-10-17T05:13:42;15.00;99.90
17489;DHT22;8861;52.644;4.734;2022-10-17T05:16:09;15.00;99.90
17489;DHT22;8861;52.644;4.734;2022-10-17T05:18:36;15.00;99.90
17489;DHT22;8861;52.644;4.734;2022-10-17T05:21:03;15.10;99.90
17489;DHT22;8861;52.644;4.734;2022-10-17T05:23:32;15.10;99.90
17489;DHT22;8861;52.644;4.734;2022-10-17T05:25:59;15.10;99.90
17489;DHT22;8861;52.644;4.734;2022-10-17T05:28:26;15.10;99.90
17489;DHT22;8861;52.644;4.734;2022-10-17T05:30:53;15.10;99.90
17489;DHT22;8861;52.644;4.734;2022-10-17T05:33:21;15.00;99.90
17489;DHT22;8861;52.644;4.734;2022-10-17T05:35:48;15.00;99.90
17489;DHT22;8861;52.644;4.734;2022-10-17T05:38:15;15.10;99.90
17489;DHT22;8861;52.644;4.734;2022-10-17T05:40:43;15.10;99.90
17489;DHT22;8861;52.644;4.734;2022-10-17T05:43:10;15.10;99.90
17489;DHT22;8861;52.644;4.734;2022-10-17T05:45:37;15.10;99.90
17489;DHT22;8861;52.644;4.734;2022-10-17T05:48:04;15.10;99.90
17489;DHT22;8861;52.644;4.734;2022-10-17T05:50:31;15.20;99.90
17489;DHT22;8861;52.644;4.734;2022-10-17T05:52:58;15.20;99.90
17489;DHT22;8861;52.644;4.734;2022-10-17T05:55:25;15.20;99.90
17489;DHT22;8861;52.644;4.734;2022-10-17T05:57:53;15.20;99.90
17489;DHT22;8861;52.644;4.734;2022-10-17T06:00:20;15.20;99.90
17489;DHT22;8861;52.644;4.734;2022-10-17T06:02:47;15.20;99.90
17489;DHT22;8861;52.644;4.734;2022-10-17T06:05:15;15.20;99.90
17489;DHT22;8861;52.644;4.734;2022-10-17T06:07:42;15.30;99.90
17489;DHT22;8861;52.644;4.734;2022-10-17T06:10:09;15.30;99.90
17489;DHT22;8861;52.644;4.734;2022-10-17T06:12:37;15.30;99.90
17489;DHT22;8861;52.644;4.734;2022-10-17T06:15:06;15.40;99.90
17489;DHT22;8861;52.644;4.734;2022-10-17T06:17:33;15.40;99.90
17489;DHT22;8861;52.644;4.734;2022-10-17T06:20:00;15.50;99.90
17489;DHT22;8861;52.644;4.734;2022-10-17T06:22:27;15.60;99.90
17489;DHT22;8861;52.644;4.734;2022-10-17T06:24:54;15.60;99.90
17489;DHT22;8861;52.644;4.734;2022-10-17T06:27:20;15.60;99.90
17489;DHT22;8861;52.644;4.734;2022-10-17T06:29:47;15.60;99.90
17489;DHT22;8861;52.644;4.734;2022-10-17T06:32:17;15.70;99.90
17489;DHT22;8861;52.644;4.734;2022-10-17T06:34:43;15.80;99.90
17489;DHT22;8861;52.644;4.734;2022-10-17T06:37:10;15.80;99.90
17489;DHT22;8861;52.644;4.734;2022-10-17T06:39:37;16.00;99.90
17489;DHT22;8861;52.644;4.734;2022-10-17T06:42:04;16.10;99.90
17489;DHT22;8861;52.644;4.734;2022-10-17T06:44:31;16.20;99.90
17489;DHT22;8861;52.644;4.734;2022-10-17T06:46:58;16.30;99.90
17489;DHT22;8861;52.644;4.734;2022-10-17T06:49:27;16.40;99.90
17489;DHT22;8861;52.644;4.734;2022-10-17T06:51:54;16.50;99.90
17489;DHT22;8861;52.644;4.734;2022-10-17T06:54:21;16.50;99.90
17489;DHT22;8861;52.644;4.734;2022-10-17T06:56:48;16.50;99.90
17489;DHT22;8861;52.644;4.734;2022-10-17T06:59:14;16.50;99.90
17489;DHT22;8861;52.644;4.734;2022-10-17T07:01:41;16.50;99.90
17489;DHT22;8861;52.644;4.734;2022-10-17T07:04:08;16.50;99.90
17489;DHT22;8861;52.644;4.734;2022-10-17T07:06:37;16.50;99.90
17489;DHT22;8861;52.644;4.734;2022-10-17T07:09:04;16.50;99.90
17489;DHT22;8861;52.644;4.734;2022-10-17T07:11:32;16.40;99.90
17489;DHT22;8861;52.644;4.734;2022-10-17T07:13:59;16.40;99.90
17489;DHT22;8861;52.644;4.734;2022-10-17T07:16:26;16.40;99.90
17489;DHT22;8861;52.644;4.734;2022-10-17T07:18:53;16.40;99.90
17489;DHT22;8861;52.644;4.734;2022-10-17T07:21:21;16.40;99.90
17489;DHT22;8861;52.644;4.734;2022-10-17T07:23:49;16.40;99.90
17489;DHT22;8861;52.644;4.734;2022-10-17T07:26:17;16.40;99.90
17489;DHT22;8861;52.644;4.734;2022-10-17T07:28:45;16.40;99.90
17489;DHT22;8861;52.644;4.734;2022-10-17T07:31:14;16.40;99.90
17489;DHT22;8861;52.644;4.734;2022-10-17T07:33:41;16.40;99.90
17489;DHT22;8861;52.644;4.734;2022-10-17T07:36:08;16.40;99.90
17489;DHT22;8861;52.644;4.734;2022-10-17T07:38:36;16.40;99.90
17489;DHT22;8861;52.644;4.734;2022-10-17T07:41:06;16.40;99.90
17489;DHT22;8861;52.644;4.734;2022-10-17T07:43:33;16.30;99.90
17489;DHT22;8861;52.644;4.734;2022-10-17T07:46:01;16.30;99.90
17489;DHT22;8861;52.644;4.734;2022-10-17T07:48:29;16.30;99.90
17489;DHT22;8861;52.644;4.734;2022-10-17T07:50:56;16.30;99.90
17489;DHT22;8861;52.644;4.734;2022-10-17T07:53:23;16.30;99.90
17489;DHT22;8861;52.644;4.734;2022-10-17T07:55:49;16.30;99.90
17489;DHT22;8861;52.644;4.734;2022-10-17T07:58:18;16.30;99.90
17489;DHT22;8861;52.644;4.734;2022-10-17T08:00:45;16.20;99.90
17489;DHT22;8861;52.644;4.734;2022-10-17T08:03:13;16.10;99.90
17489;DHT22;8861;52.644;4.734;2022-10-17T08:05:40;16.10;99.90
17489;DHT22;8861;52.644;4.734;2022-10-17T08:08:07;16.10;99.90
17489;DHT22;8861;52.644;4.734;2022-10-17T08:10:34;16.10;99.90
17489;DHT22;8861;52.644;4.734;2022-10-17T08:13:00;16.10;99.90
17489;DHT22;8861;52.644;4.734;2022-10-17T08:15:29;16.10;99.90
17489;DHT22;8861;52.644;4.734;2022-10-17T08:17:58;16.10;99.90
17489;DHT22;8861;52.644;4.734;2022-10-17T08:20:25;16.10;99.90
17489;DHT22;8861;52.644;4.734;2022-10-17T08:22:53;16.10;99.90
17489;DHT22;8861;52.644;4.734;2022-10-17T08:25:20;16.20;99.90
17489;DHT22;8861;52.644;4.734;2022-10-17T08:27:47;16.20;99.90
17489;DHT22;8861;52.644;4.734;2022-10-17T08:30:14;16.30;99.90
17489;DHT22;8861;52.644;4.734;2022-10-17T08:32:42;16.30;99.90
17489;DHT22;8861;52.644;4.734;2022-10-17T08:35:09;16.40;99.90
17489;DHT22;8861;52.644;4.734;2022-10-17T08:37:40;16.40;99.90
17489;DHT22;8861;52.644;4.734;2022-10-17T08:40:13;16.40;99.90
17489;DHT22;8861;52.644;4.734;2022-10-17T08:43:17;16.40;99.90
17489;DHT22;8861;52.644;4.734;2022-10-17T08:45:51;16.40;99.90
17489;DHT22;8861;52.644;4.734;2022-10-17T08:48:23;16.30;99.90
17489;DHT22;8861;52.644;4.734;2022-10-17T08:50:53;16.30;99.90
17489;DHT22;8861;52.644;4.734;2022-10-17T08:53:24;16.30;99.90
17489;DHT22;8861;52.644;4.734;2022-10-17T08:55:53;16.30;99.90
17489;DHT22;8861;52.644;4.734;2022-10-17T08:58:22;16.30;99.90
17489;DHT22;8861;52.644;4.734;2022-10-17T09:00:54;16.30;99.90
17489;DHT22;8861;52.644;4.734;2022-10-17T09:03:40;16.30;99.90
17489;DHT22;8861;52.644;4.734;2022-10-17T09:06:14;16.30;99.90
17489;DHT22;8861;52.644;4.734;2022-10-17T09:08:48;16.30;99.90
17489;DHT22;8861;52.644;4.734;2022-10-17T09:11:29;16.30;99.90
17489;DHT22;8861;52.644;4.734;2022-10-17T09:14:07;16.40;99.90
17489;DHT22;8861;52.644;4.734;2022-10-17T09:16:56;16.40;99.90
17489;DHT22;8861;52.644;4.734;2022-10-17T09:19:30;16.40;99.90
17489;DHT22;8861;52.644;4.734;2022-10-17T09:22:00;16.40;99.90
17489;DHT22;8861;52.644;4.734;2022-10-17T09:24:36;16.40;99.90
17489;DHT22;8861;52.644;4.734;2022-10-17T09:27:05;16.40;99.90
17489;DHT22;8861;52.644;4.734;2022-10-17T09:29:36;16.40;99.90
17489;DHT22;8861;52.644;4.734;2022-10-17T09:32:10;16.40;99.90
17489;DHT22;8861;52.644;4.734;2022-10-17T09:34:39;16.40;99.90
17489;DHT22;8861;52.644;4.734;2022-10-17T09:37:11;16.40;99.90
17489;DHT22;8861;52.644;4.734;2022-10-17T09:39:39;16.40;99.90
17489;DHT22;8861;52.644;4.734;2022-10-17T09:42:11;16.50;99.90
17489;DHT22;8861;52.644;4.734;2022-10-17T09:44:44;16.50;99.90
17489;DHT22;8861;52.644;4.734;2022-10-17T09:47:33;16.50;99.90
17489;DHT22;8861;52.644;4.734;2022-10-17T09:50:01;16.50;99.90
17489;DHT22;8861;52.644;4.734;2022-10-17T09:52:32;16.50;99.90
17489;DHT22;8861;52.644;4.734;2022-10-17T09:55:03;16.60;99.90
17489;DHT22;8861;52.644;4.734;2022-10-17T09:57:51;16.60;99.90
17489;DHT22;8861;52.644;4.734;2022-10-17T10:00:22;16.70;99.90
17489;DHT22;8861;52.644;4.734;2022-10-17T10:02:49;16.70;99.90
17489;DHT22;8861;52.644;4.734;2022-10-17T10:05:18;16.70;99.90
17489;DHT22;8861;52.644;4.734;2022-10-17T10:08:01;16.70;99.90
17489;DHT22;8861;52.644;4.734;2022-10-17T10:10:29;16.70;99.90
17489;DHT22;8861;52.644;4.734;2022-10-17T10:13:03;16.70;99.90
17489;DHT22;8861;52.644;4.734;2022-10-17T10:15:33;16.70;99.90
17489;DHT22;8861;52.644;4.734;2022-10-17T10:18:01;16.70;99.90
17489;DHT22;8861;52.644;4.734;2022-10-17T10:20:33;16.70;99.90
17489;DHT22;8861;52.644;4.734;2022-10-17T10:23:11;16.70;99.90
17489;DHT22;8861;52.644;4.734;2022-10-17T10:25:48;16.80;99.90
17489;DHT22;8861;52.644;4.734;2022-10-17T10:28:17;16.80;99.90
17489;DHT22;8861;52.644;4.734;2022-10-17T10:30:47;16.90;99.90
17489;DHT22;8861;52.644;4.734;2022-10-17T10:33:15;17.00;99.90
17489;DHT22;8861;52.644;4.734;2022-10-17T10:35:52;17.00;99.90
17489;DHT22;8861;52.644;4.734;2022-10-17T10:38:20;17.00;99.90
17489;DHT22;8861;52.644;4.734;2022-10-17T10:40:49;16.90;99.90
17489;DHT22;8861;52.644;4.734;2022-10-17T10:43:23;16.80;99.90
17489;DHT22;8861;52.644;4.734;2022-10-17T10:45:52;16.70;99.90
17489;DHT22;8861;52.644;4.734;2022-10-17T10:48:21;16.60;99.90
17489;DHT22;8861;52.644;4.734;2022-10-17T10:50:52;16.60;99.90
17489;DHT22;8861;52.644;4.734;2022-10-17T10:53:33;16.50;99.90
17489;DHT22;8861;52.644;4.734;2022-10-17T10:56:05;16.50;99.90
17489;DHT22;8861;52.644;4.734;2022-10-17T10:58:40;16.50;99.90
17489;DHT22;8861;52.644;4.734;2022-10-17T11:01:15;16.50;99.90
17489;DHT22;8861;52.644;4.734;2022-10-17T11:03:52;16.50;99.90
17489;DHT22;8861;52.644;4.734;2022-10-17T11:06:25;16.50;99.90
17489;DHT22;8861;52.644;4.734;2022-10-17T11:09:02;16.60;99.90
17489;DHT22;8861;52.644;4.734;2022-10-17T11:11:35;16.50;99.90
17489;DHT22;8861;52.644;4.734;2022-10-17T11:14:10;16.50;99.90
17489;DHT22;8861;52.644;4.734;2022-10-17T11:16:43;16.50;99.90
17489;DHT22;8861;52.644;4.734;2022-10-17T11:19:17;16.50;99.90
17489;DHT22;8861;52.644;4.734;2022-10-17T11:21:58;16.50;99.90
17489;DHT22;8861;52.644;4.734;2022-10-17T11:24:31;16.50;99.90
17489;DHT22;8861;52.644;4.734;2022-10-17T11:27:03;16.60;99.90
17489;DHT22;8861;52.644;4.734;2022-10-17T11:29:32;16.60;99.90
17489;DHT22;8861;52.644;4.734;2022-10-17T11:32:05;16.70;99.90
17489;DHT22;8861;52.644;4.734;2022-10-17T11:34:36;16.80;99.90
17489;DHT22;8861;52.644;4.734;2022-10-17T11:37:12;16.80;99.90
17489;DHT22;8861;52.644;4.734;2022-10-17T11:39:43;16.80;99.90
17489;DHT22;8861;52.644;4.734;2022-10-17T11:42:16;16.80;99.90
17489;DHT22;8861;52.644;4.734;2022-10-17T11:44:44;16.80;99.90
17489;DHT22;8861;52.644;4.734;2022-10-17T11:47:18;16.80;99.90
17489;DHT22;8861;52.644;4.734;2022-10-17T11:49:51;16.80;99.90
17489;DHT22;8861;52.644;4.734;2022-10-17T11:52:29;16.90;99.90
17489;DHT22;8861;52.644;4.734;2022-10-17T11:55:04;17.00;99.90
17489;DHT22;8861;52.644;4.734;2022-10-17T11:57:49;17.00;99.90
17489;DHT22;8861;52.644;4.734;2022-10-17T12:00:24;17.10;99.90
17489;DHT22;8861;52.644;4.734;2022-10-17T12:03:01;17.10;99.90
17489;DHT22;8861;52.644;4.734;2022-10-17T12:05:38;17.10;99.90
17489;DHT22;8861;52.644;4.734;2022-10-17T12:08:12;17.20;99.90
17489;DHT22;8861;52.644;4.734;2022-10-17T12:10:49;17.20;99.90
17489;DHT22;8861;52.644;4.734;2022-10-17T12:13:47;17.10;99.90
17489;DHT22;8861;52.644;4.734;2022-10-17T12:16:41;17.10;99.90
17489;DHT22;8861;52.644;4.734;2022-10-17T12:19:39;17.00;99.90
17489;DHT22;8861;52.644;4.734;2022-10-17T12:22:18;16.90;99.90
17489;DHT22;8861;52.644;4.734;2022-10-17T12:24:58;16.90;99.90
17489;DHT22;8861;52.644;4.734;2022-10-17T12:27:43;16.80;99.90
17489;DHT22;8861;52.644;4.734;2022-10-17T12:30:18;16.80;99.90
17489;DHT22;8861;52.644;4.734;2022-10-17T12:33:03;16.80;99.90
17489;DHT22;8861;52.644;4.734;2022-10-17T12:35:33;16.80;99.90
17489;DHT22;8861;52.644;4.734;2022-10-17T12:38:18;16.80;99.90
17489;DHT22;8861;52.644;4.734;2022-10-17T12:40:52;17.00;99.90
17489;DHT22;8861;52.644;4.734;2022-10-17T12:43:47;17.10;99.90
17489;DHT22;8861;52.644;4.734;2022-10-17T12:49:42;17.20;99.90
17489;DHT22;8861;52.644;4.734;2022-10-17T12:52:22;17.20;99.90
17489;DHT22;8861;52.644;4.734;2022-10-17T12:54:59;17.20;99.90
17489;DHT22;8861;52.644;4.734;2022-10-17T12:57:31;17.20;99.90
17489;DHT22;8861;52.644;4.734;2022-10-17T13:00:03;17.20;99.90
17489;DHT22;8861;52.644;4.734;2022-10-17T13:02:31;17.30;99.90
17489;DHT22;8861;52.644;4.734;2022-10-17T13:05:04;17.40;99.90
17489;DHT22;8861;52.644;4.734;2022-10-17T13:07:33;17.40;99.90
17489;DHT22;8861;52.644;4.734;2022-10-17T13:10:01;17.40;99.90
17489;DHT22;8861;52.644;4.734;2022-10-17T13:12:32;17.40;99.90
17489;DHT22;8861;52.644;4.734;2022-10-17T13:15:04;17.50;99.90
17489;DHT22;8861;52.644;4.734;2022-10-17T13:17:33;17.50;99.90
17489;DHT22;8861;52.644;4.734;2022-10-17T13:20:00;17.50;99.90
17489;DHT22;8861;52.644;4.734;2022-10-17T13:22:28;17.50;99.90
17489;DHT22;8861;52.644;4.734;2022-10-17T13:25:07;17.50;99.90
17489;DHT22;8861;52.644;4.734;2022-10-17T13:27:36;17.50;99.90
17489;DHT22;8861;52.644;4.734;2022-10-17T13:30:24;17.40;99.90
17489;DHT22;8861;52.644;4.734;2022-10-17T13:32:52;17.50;99.90
17489;DHT22;8861;52.644;4.734;2022-10-17T13:35:24;17.50;99.90
17489;DHT22;8861;52.644;4.734;2022-10-17T13:37:52;17.60;99.90
17489;DHT22;8861;52.644;4.734;2022-10-17T13:40:22;17.60;99.90
17489;DHT22;8861;52.644;4.734;2022-10-17T13:42:52;17.70;99.90
17489;DHT22;8861;52.644;4.734;2022-10-17T13:45:26;17.70;99.90
17489;DHT22;8861;52.644;4.734;2022-10-17T13:47:54;17.70;99.90
17489;DHT22;8861;52.644;4.734;2022-10-17T13:50:26;17.80;99.90
17489;DHT22;8861;52.644;4.734;2022-10-17T13:53:11;17.80;99.90
17489;DHT22;8861;52.644;4.734;2022-10-17T13:55:53;17.80;99.90
17489;DHT22;8861;52.644;4.734;2022-10-17T13:58:22;17.90;99.90
17489;DHT22;8861;52.644;4.734;2022-10-17T14:00:49;18.00;99.90
17489;DHT22;8861;52.644;4.734;2022-10-17T14:03:18;18.00;99.90
17489;DHT22;8861;52.644;4.734;2022-10-17T14:06:11;18.00;99.90
17489;DHT22;8861;52.644;4.734;2022-10-17T14:08:47;18.00;99.90
17489;DHT22;8861;52.644;4.734;2022-10-17T14:11:18;18.00;99.90
17489;DHT22;8861;52.644;4.734;2022-10-17T14:13:50;18.00;99.90
17489;DHT22;8861;52.644;4.734;2022-10-17T14:16:18;17.90;99.90
17489;DHT22;8861;52.644;4.734;2022-10-17T14:18:47;17.80;99.90
17489;DHT22;8861;52.644;4.734;2022-10-17T14:21:18;17.80;99.90
17489;DHT22;8861;52.644;4.734;2022-10-17T14:23:46;17.70;99.90
17489;DHT22;8861;52.644;4.734;2022-10-17T14:26:15;17.70;99.90
17489;DHT22;8861;52.644;4.734;2022-10-17T14:28:43;17.60;99.90
17489;DHT22;8861;52.644;4.734;2022-10-17T14:31:24;17.60;99.90
17489;DHT22;8861;52.644;4.734;2022-10-17T14:33:52;17.50;99.90
17489;DHT22;8861;52.644;4.734;2022-10-17T14:36:29;17.40;99.90
17489;DHT22;8861;52.644;4.734;2022-10-17T14:38:56;17.40;99.90
17489;DHT22;8861;52.644;4.734;2022-10-17T14:41:25;17.50;99.90
17489;DHT22;8861;52.644;4.734;2022-10-17T14:43:56;17.50;99.90
17489;DHT22;8861;52.644;4.734;2022-10-17T14:46:25;17.50;99.90
17489;DHT22;8861;52.644;4.734;2022-10-17T14:48:55;17.50;99.90
17489;DHT22;8861;52.644;4.734;2022-10-17T14:51:22;17.60;99.90
17489;DHT22;8861;52.644;4.734;2022-10-17T14:54:00;17.50;99.90
17489;DHT22;8861;52.644;4.734;2022-10-17T14:56:34;17.60;99.90
17489;DHT22;8861;52.644;4.734;2022-10-17T14:59:02;17.50;99.90
17489;DHT22;8861;52.644;4.734;2022-10-17T15:01:32;17.50;99.90
17489;DHT22;8861;52.644;4.734;2022-10-17T15:03:59;17.50;99.90
17489;DHT22;8861;52.644;4.734;2022-10-17T15:06:27;17.50;99.90
17489;DHT22;8861;52.644;4.734;2022-10-17T15:08:54;17.50;99.90
17489;DHT22;8861;52.644;4.734;2022-10-17T15:11:21;17.40;99.90
17489;DHT22;8861;52.644;4.734;2022-10-17T15:13:48;17.40;99.90
17489;DHT22;8861;52.644;4.734;2022-10-17T15:16:18;17.40;99.90
17489;DHT22;8861;52.644;4.734;2022-10-17T15:18:47;17.30;99.90
17489;DHT22;8861;52.644;4.734;2022-10-17T15:21:15;17.30;99.90
17489;DHT22;8861;52.644;4.734;2022-10-17T15:23:42;17.20;99.90
17489;DHT22;8861;52.644;4.734;2022-10-17T15:26:12;17.20;99.90
17489;DHT22;8861;52.644;4.734;2022-10-17T15:28:40;17.10;99.90
17489;DHT22;8861;52.644;4.734;2022-10-17T15:31:12;17.10;99.90
17489;DHT22;8861;52.644;4.734;2022-10-17T15:33:40;17.10;99.90
17489;DHT22;8861;52.644;4.734;2022-10-17T15:36:18;17.10;99.90
17489;DHT22;8861;52.644;4.734;2022-10-17T15:38:46;17.00;99.90
17489;DHT22;8861;52.644;4.734;2022-10-17T15:41:13;17.00;99.90
17489;DHT22;8861;52.644;4.734;2022-10-17T15:43:40;17.00;99.90
17489;DHT22;8861;52.644;4.734;2022-10-17T15:46:16;17.00;99.90
17489;DHT22;8861;52.644;4.734;2022-10-17T15:48:43;17.00;99.90
17489;DHT22;8861;52.644;4.734;2022-10-17T15:51:10;17.00;99.90
17489;DHT22;8861;52.644;4.734;2022-10-17T15:53:38;16.90;99.90
17489;DHT22;8861;52.644;4.734;2022-10-17T15:56:06;16.90;99.90
17489;DHT22;8861;52.644;4.734;2022-10-17T15:58:36;16.80;99.90
17489;DHT22;8861;52.644;4.734;2022-10-17T16:01:04;16.70;99.90
17489;DHT22;8861;52.644;4.734;2022-10-17T16:03:32;16.70;99.90
17489;DHT22;8861;52.644;4.734;2022-10-17T16:05:59;16.60;99.90
17489;DHT22;8861;52.644;4.734;2022-10-17T16:08:26;16.50;99.90
17489;DHT22;8861;52.644;4.734;2022-10-17T16:10:54;16.50;99.90
17489;DHT22;8861;52.644;4.734;2022-10-17T16:13:23;16.50;99.90